• Join FlightAware (Why Join?)
  • Login
  • US Flag 
11:20AM EDT


 

Airport Tracker/Info


-or-


 

Live Flight TrackerFlight Track Log ✈ N328AJ ✈ 08-Oct-2013 ✈ KCMH - KDET

Flight Track Log - Related Links

Times and Time Zones

All times are in EDT time to prevent confusion due to time zone crossing. See the N328AJ flight status page for this flight to view local times or setup timezone preferences in your user account.

Time Position Orientation Groundspeed Altitude Reporting Facility
EDT Latitude Longitude Course Direction KTS MPH feet Rate Location/Type
11:12AM 39.9939 -82.9086 14° North 187 215 1,100  Level Indianapolis Center
11:12AM 39.9953 -82.9250 276° West 206 237 1,500 1,740 Climbing Indianapolis Center
11:13AM 40.0417 -82.9497 338° Northwest 208 239 3,400 1,620 Climbing Indianapolis Center
11:14AM 40.1011 -82.9611 352° North 211 243 4,900 1,380 Climbing Indianapolis Center
11:15AM 40.1633 -82.9711 353° North 221 254 6,300 1,500 Climbing Indianapolis Center
11:17AM 40.2381 -82.9683 North 224 258 8,100 1,620 Climbing Indianapolis Center
11:18AM 40.6681 -82.9241 14° North  Level Estimated
11:18AM 40.3022 -82.9708 358° North 228 262 9,700  Level Indianapolis Center
11:19AM 40.3692 -82.9822 353° North 239 275 10,800 1,020 Climbing Indianapolis Center
11:20AM 40.4394 -82.9894 356° North 251 289 11,900 1,020 Climbing Indianapolis Center
11:21AM 40.5200 -83.0003 354° North 253 291 13,000 480 Climbing Indianapolis Center
11:22AM 40.5972 -83.0103 354° North 268 308 13,000  Level Indianapolis Center
11:23AM 40.6769 -83.0197 355° North 281 323 13,000  Level Indianapolis Center
11:24AM 40.7569 -83.0025 North 285 328 13,000  Level Indianapolis Center
11:25AM 40.8356 -82.9756 15° North 289 333 13,000  Level Indianapolis Center
11:26AM 40.9144 -82.9497 14° North 288 331 13,000  Level Indianapolis Center
11:27AM 40.9933 -82.9214 15° North 289 333 13,000  Level Indianapolis Center
11:28AM 41.0700 -82.8939 15° North 285 328 13,100  Climbing Indianapolis Center
11:29AM 41.1469 -82.8681 14° North 283 326 13,100  Level Indianapolis Center
11:30AM 41.2236 -82.8411 15° North 282 325 13,100 -300 Level Indianapolis Center
11:31AM 41.3125 -82.8097 15° North 281 323 12,600 -480 Descending Indianapolis Center
11:32AM 41.3914 -82.7817 15° North 287 330 12,200 -480 Descending Indianapolis Center
11:33AM 41.4706 -82.7542 15° North 290 334 11,700 -540 Descending Indianapolis Center
11:34AM 41.5439 -82.7308 13° North 292 336 11,200 -540 Descending Cleveland Center
11:34AM 41.5769 -82.7158 19° North 292 336 10,900 -660 Descending Cleveland Center
11:35AM 41.6453 -82.6939 13° North 286 329 10,400 -600 Descending Cleveland Center
11:35AM 41.6550 -82.6883 23° Northeast 285 328 10,300 -600 Descending Cleveland Center
11:36AM 41.7228 -82.6647 15° North 279 321 9,800 -600 Descending Cleveland Center
11:37AM 41.7303 -82.6614 18° North 281 323 9,700 -600 Descending Cleveland Center
11:37AM 41.7981 -82.6661 357° North 280 322 9,200 -720 Descending Cleveland Center
11:38AM 41.8211 -82.6731 347° North 283 326 9,000 -420 Descending Cleveland Center
11:38AM 41.8728 -82.7008 338° Northwest 278 320 8,800 -540 Descending Cleveland Center
11:39AM 41.8925 -82.7097 341° North 277 319 8,500 -1,200 Descending Cleveland Center
11:39AM 41.9519 -82.7364 342° North 276 318 7,500 -1,200 Descending Cleveland Center
11:40AM 41.9647 -82.7403 347° North 274 315 7,300 -1,200 Descending Cleveland Center
11:40AM 41.9906 -82.7528 340° North 272 313 6,900 -1,260 Descending Cleveland Center
11:41AM 42.0347 -82.7750 340° North 272 313 6,000 -1,260 Descending Cleveland Center
11:41AM 42.0794 -82.7981 339° North 260 299 5,300 -1,320 Descending Cleveland Center
11:42AM 42.1008 -82.8081 341° North 260 299 4,700 -1,380 Descending Cleveland Center
11:42AM 42.1461 -82.8322 338° Northwest 261 300 3,900 -1,080 Descending Cleveland Center
11:43AM 42.1686 -82.8414 343° North 260 299 3,600 -900 Descending Cleveland Center
11:43AM 42.2028 -82.8567 342° North 255 293 3,200 -540 Descending Cleveland Center
11:44AM 42.2344 -82.8728 339° North 255 293 3,100 -240 Descending Cleveland Center
11:44AM 42.2653 -82.8903 337° Northwest 232 267 3,000  Descending Cleveland Center
11:45AM 42.3039 -82.9075 342° North 231 266 3,100  Climbing Cleveland Center
11:45AM 42.3117 -82.9136 330° Northwest 208 239 3,000 -1,020 Descending Cleveland Center
11:46AM 42.3458 -82.9428 328° Northwest 194 223 2,100 -1,020 Descending Cleveland Center
11:46AM 42.3628 -82.9600 323° Northwest 160 184 1,700 -840 Descending Cleveland Center
11:47AM 42.3769 -82.9764 319° Northwest 168 193 1,300 -600 Descending Cleveland Center
11:47AM 42.3939 -82.9922 325° Northwest 111 128 1,000 -300 Descending Cleveland Center
11:48AM 42.4019 -82.9983 331° Northwest 149 171 1,000  Level Cleveland Center